Historyczne dane pomiarowe

Dodano dane terminowe – wersja testowa.

Dane z okresu 1951-2019

Wersja bazy: 1.34 [2019-03-16, lista zmian], aktualizacja planowana na 2019-04-15

Dane meteo z obszaru Polski uzyskane na podstawie danych udostępnionych przez Instytut Meteorologii i Gospodarki Wodnej – Państwowy Instytut Badawczy.

 

Wybierz Datę:    

       

TemperaturaWilgotnośćWiatrCiśnienieOpadyŚniegCzas trwania zjawisk
 Stacja t tx tn tng RH VA  wxwx mslp ppp RRR   cm mm wxwxwxwxwxwxwx
1961-08-14 14.7 18.4 9.2- 74.0- 4.0 1.7---- 0.0------------
1961-08-13 14.3 18.2 12.7- 83.0- 5.3 2.0---- 0.2------------
1961-08-12 18.1 22.0 15.5- 88.5- 6.3 0.3---- 3.5------------
1961-08-11 20.7 26.4 16.8- 83.8- 4.3 1.0---- 13.7------------
1961-08-10 20.9 26.1 16.2- 78.3- 4.0 2.0---- 9.8------------
1961-08-09 22.0 28.5 14.3- 65.3- 2.7 1.7---- 0.2------------
1961-08-08 19.0 23.7 13.6- 58.0- 2.0 1.3---- 0.0------------
1961-08-07 21.3 28.7 17.0- 75.0- 2.0 2.0---- 0.0------------
1961-08-06 23.4 30.4 12.6- 65.8- 2.3 1.7---- 0.0------------
1961-08-05 17.5 22.2 14.1- 79.5- 4.0 1.0---- 0.0------------
1961-08-04 15.6 20.0 9.0- 73.3- 5.0 1.3---- 0.0------------
1961-08-03 17.7 21.7 14.3- 76.0- 6.7 2.0---- 0.0------------
1961-08-02 18.9 24.7 9.0- 63.0- 0.7 1.0---- 0.0------------
1961-08-01 13.6 15.8 12.0- 86.3- 6.7 3.0---- 0.3------------
1961-07-31 14.5 18.0 12.5- 83.8- 6.7 4.7---- 1.4------------
1961-07-30 12.9 15.2 12.5- 95.8- 8.0 1.3---- 22.1------------
1961-07-29 14.6 17.2 13.2- 86.3- 8.0 1.7---- 7.0------------
1961-07-28 17.5 22.4 16.2- 82.8- 7.0 1.0---- 23.3------------
1961-07-27 19.7 26.4 13.7- 74.5- 4.7 1.3---- 0.0------------
1961-07-26 16.0 20.2 11.8- 75.0- 6.7 1.0---- 0.0------------
1961-07-25 14.0 17.6 9.4- 73.8- 7.7 2.0---- 0.0------------
1961-07-24 15.0 17.9 12.5- 75.5- 5.7 1.7---- 0.0------------
1961-07-23 14.8 17.7 12.5- 80.0- 7.7 3.0---- 0.0------------
1961-07-22 15.1 19.4 12.8- 82.0- 6.3 3.7---- 1.7------------
1961-07-21 15.4 20.2 12.2- 83.3- 4.0 2.0---- 3.4------------
1961-07-20 17.1 22.3 8.0- 68.0- 2.3 1.7---- 0.0------------
1961-07-19 15.2 20.7 9.1- 80.8- 2.7 0.3---- 0.0------------
1961-07-18 13.4 17.7 10.0- 87.3- 6.3 1.3---- 13.4------------
1961-07-17 15.8 23.2 10.2- 81.5- 3.3 1.7---- 2.2------------
1961-07-16 15.8 19.2 9.0- 84.0- 7.7 2.0---- 6.4------------
1961-07-15 17.5 22.7 9.0- 72.0- 3.0 1.7---- 0.8------------
1961-07-14 15.2 25.0 13.5- 71.3- 5.7 2.7---- 0.0------------
1961-07-13 23.7 28.7 12.5- 60.5- 3.0 3.0---- 1.1------------
1961-07-12 18.2 24.7 10.0- 80.8- 3.7 1.0---- 2.3------------
1961-07-11 16.3 20.8 10.0- 61.5- 2.0 2.3---- 0.0------------
1961-07-10 13.3 18.5 11.0- 79.5- 4.7 2.3---- 1.6------------
1961-07-09 16.4 23.6 7.6- 66.3- 5.3 2.7---- 0.0------------
1961-07-08 14.8 20.2 9.4- 64.8- 3.0 0.7---- 0.0------------
1961-07-07 12.8 17.2 9.4- 70.3- 6.0 1.7---- 0.0------------
1961-07-06 13.1 17.6 8.0- 73.8- 4.0 2.7---- 0.9------------
1961-07-05 14.5 19.6 12.8- 64.0- 5.3 3.7---- 0.0------------
1961-07-04 20.8 26.2 17.6- 78.5- 4.3 2.3---- 1.4------------
1961-07-03 23.5 30.4 12.5- 54.8- 1.0 0.3---- 0.0------------
1961-07-02 22.0 28.4 11.0- 59.3- 0.0 0.7---- 0.0------------
1961-07-01 19.1 24.8 10.7- 64.3- 0.3 0.7---- 0.0------------
1961-06-30 18.5 24.2 11.0- 64.5- 0.0 2.3---- 0.0------------
1961-06-29 14.7 18.0 10.1- 76.3- 6.7 2.3---- 0.0------------
1961-06-28 14.4 22.0 13.0- 80.8- 5.3 4.0---- 4.0------------
1961-06-27 24.0 32.0 14.6- 63.8- 3.0 3.3---- 15.6------------
1961-06-26 21.8 29.0 16.0- 71.3- 2.7 2.0---- 0.0------------
1961-06-25 21.6 26.8 13.0- 59.3- 1.3 3.0---- 0.0------------
1961-06-24 17.5 23.0 12.5- 62.3- 3.0 3.7---- 0.0------------
1961-06-23 17.0 21.9 14.0- 77.8- 5.3 1.3---- 3.9------------
1961-06-22 15.5 21.2 8.5- 62.3- 3.3 0.7---- 7.6------------
1961-06-21 15.9 22.8 5.5- 65.8- 4.0 4.3---- 3.5------------
1961-06-20 14.5 19.7 8.8- 61.5- 1.3 2.3---- 0.0------------
1961-06-19 16.7 21.1 14.8- 71.3- 5.0 3.0---- 0.0------------
1961-06-18 19.7 26.1 9.3- 60.5- 5.7 2.7---- 0.0------------
1961-06-17 16.9 21.8 9.4- 68.5- 3.3 3.0---- 0.0------------
1961-06-16 12.9 17.2 10.5- 84.0- 6.3 4.0---- 0.4------------
409.4 ms

 

Źródłem pochodzenia danych jest Instytut Meteorologii i Gospodarki Wodnej – Państwowy Instytut Badawczy. Dane Instytutu Meteorologii i Gospodarki Wodnej – Państwowego Instytutu Badawczego zostały przetworzone.

Dane źródłowe można odnaleźć na stronie https://dane.imgw.pl